Flight Track Log - Related Links

Times and Time Zones

All times are in EDT time to prevent confusion due to time zone crossing. See the UAL33 flight status page for this flight to view local times or setup timezone preferences in your user account.

Time Position Orientation Groundspeed Altitude Reporting Facility
EDT Latitude Longitude Course Direction KTS MPH feet Rate Location/Type
Fri 17:25:06 29.9496 -95.3440 167° South 173 199 1,100  Level FlightAware ADS-B
Fri 17:25:13 29.9445 -95.3469 206° Southwest 174 200 1,300 2,000 Climbing FlightAware ADS-B
Fri 17:25:18 29.9415 -95.3505 226° Southwest 176 203 1,500 2,000 Climbing FlightAware ADS-B
Fri 17:25:22 29.9399 -95.3534 238° Southwest 180 207 1,600 2,000 Climbing FlightAware ADS-B
Fri 17:25:33 29.9382 -95.3635 259° West 184 212 2,000 2,571 Climbing FlightAware ADS-B
Fri 17:25:36 29.9388 -95.3672 281° West 184 212 2,200 3,429 Climbing FlightAware ADS-B
Fri 17:25:40 29.9399 -95.3703 292° West 185 213 2,400 3,000 Climbing FlightAware ADS-B
Fri 17:25:44 29.9420 -95.3741 303° West 185 213 2,600 3,000 Climbing FlightAware ADS-B
Fri 17:25:48 29.9444 -95.3767 317° Northwest 185 213 2,800 3,000 Climbing FlightAware ADS-B
Fri 17:25:52 29.9473 -95.3788 328° Northwest 185 213 3,000 2,667 Climbing FlightAware ADS-B
Fri 17:25:57 29.9510 -95.3805 338° Northwest 187 215 3,200 2,250 Climbing FlightAware ADS-B
Fri 17:26:00 29.9537 -95.3812 347° North 192 221 3,300 2,000 Climbing FlightAware ADS-B
Fri 17:26:03 29.9567 -95.3817 352° North 197 227 3,400 1,500 Climbing FlightAware ADS-B
Fri 17:26:08 29.9616 -95.3823 354° North 207 238 3,500 1,429 Climbing FlightAware ADS-B
Fri 17:26:24 29.9774 -95.3837 356° North 237 273 3,900 1,043 Climbing FlightAware ADS-B
Fri 17:26:31 29.9860 -95.3844 356° North 255 293 3,900 115 Level FlightAware ADS-B
Fri 17:27:16 30.0412 -95.3810 North 268 308 4,000 100 Climbing FlightAware ADS-B
Fri 17:27:31 30.0599 -95.3792 North 267 307 4,000  Level FlightAware ADS-B
Fri 17:28:17 30.1166 -95.3743 North 267 307 4,000 390 Level FlightAware ADS-B
Fri 17:28:48 30.1540 -95.3708 North 267 307 4,500 1,814 Climbing FlightAware ADS-B
Fri 17:29:00 30.1700 -95.3705 357° North 266 306 5,300 3,778 Climbing FlightAware ADS-B
Fri 17:29:15 30.1876 -95.3751 345° North 269 310 6,200 3,667 Climbing FlightAware ADS-B
Fri 17:29:18 30.1911 -95.3765 341° North 269 310 6,400 3,600 Climbing FlightAware ADS-B
Fri 17:29:25 30.1989 -95.3810 332° Northwest 269 310 6,800 3,913 Climbing FlightAware ADS-B
Fri 17:29:41 30.2149 -95.3933 326° Northwest 269 310 7,900 3,957 Climbing FlightAware ADS-B
Fri 17:30:12 30.2475 -95.4191 326° Northwest 272 313 9,900 3,457 Climbing FlightAware ADS-B
Fri 17:31:13 30.3114 -95.4707 325° Northwest 287 330 13,200 2,769 Climbing FlightAware ADS-B
Fri 17:31:43 30.3463 -95.4991 325° Northwest 317 365 14,100 2,176 Climbing FlightAware ADS-B
Fri 17:32:44 30.4266 -95.5644 325° Northwest 360 414 16,500 2,478 Climbing FlightAware ADS-B
Fri 17:33:15 30.4693 -95.5988 325° Northwest 368 423 17,900 2,471 Climbing FlightAware ADS-B
Fri 17:33:52 30.5227 -95.6408 327° Northwest 386 444 19,300 1,648 Climbing FlightAware ADS-B
Fri 17:34:46 30.6155 -95.6945 335° Northwest 434 499 20,400 1,241 Climbing FlightAware ADS-B
Fri 17:35:48 30.7338 -95.7579 335° Northwest 475 547 21,700 1,610 Climbing FlightAware ADS-B
Fri 17:36:49 30.8584 -95.8248 335° Northwest 490 564 23,700 2,927 Climbing FlightAware ADS-B
Fri 17:37:51 30.9840 -95.8924 335° Northwest 455 524 27,700 3,537 Climbing FlightAware ADS-B
Fri 17:38:24 31.0464 -95.9259 335° Northwest 447 514 29,300 2,509 Climbing FlightAware ADS-B
Fri 17:38:46 31.0882 -95.9481 336° Northwest 448 516 30,000 1,902 Climbing FlightAware ADS-B
Fri 17:39:05 31.1241 -95.9642 339° North 453 521 30,600 1,689 Climbing FlightAware ADS-B
Fri 17:40:29 31.2997 -96.0091 349° North 466 536 32,900 1,490 Climbing FlightAware ADS-B
Fri 17:41:30 31.4309 -96.0396 349° North 476 548 34,200 1,451 Climbing FlightAware ADS-B
Fri 17:42:00 31.4972 -96.0551 349° North 473 544 35,100 2,294 Climbing FlightAware ADS-B
Fri 17:42:38 31.5752 -96.0730 349° North 451 519 36,800 1,481 Climbing FlightAware ADS-B
Fri 17:43:17 31.6556 -96.0927 348° North 467 537 37,000 167 Climbing FlightAware ADS-B
Fri 17:43:50 31.7263 -96.1096 349° North 471 542 37,000 608 Level FlightAware ADS-B
Fri 17:44:36 31.8291 -96.1336 349° North 482 555 37,800 1,118 Climbing FlightAware ADS-B
Fri 17:46:31 32.0710 -96.1900 349° North 458 527 40,000 970 Climbing FlightAware ADS-B
Fri 17:47:54 32.2430 -96.2190 356° North 454 522 41,000 522 Climbing FlightAware ADS-B
Fri 17:48:26 32.3110 -96.2190 360° North 460 529 41,000  Level FlightAware ADS-B
Fri 17:49:50 32.4920 -96.2220 360° North 470 541 41,000  Level FlightAware ADS-B
Fri 17:50:34 32.5880 -96.2230 359° North 469 540 41,000  Level FlightAware ADS-B
Fri 17:51:16 32.6780 -96.2240 359° North 468 539 41,000  Level FlightAware ADS-B
Fri 17:51:56 32.7660 -96.2250 359° North 473 544 41,000  Level FlightAware ADS-B
Fri 17:52:34 32.8490 -96.2260 359° North 475 547 41,000  Level FlightAware ADS-B
Fri 17:53:21 32.9530 -96.2270 360° North 476 548 41,000  Level FlightAware ADS-B
Fri 17:54:03 33.0430 -96.2280 359° North 475 547 41,000  Level FlightAware ADS-B
Fri 17:54:47 33.1410 -96.2290 360° North 473 544 41,000  Level FlightAware ADS-B
Fri 17:55:27 33.2280 -96.2300 359° North 474 545 41,000  Level FlightAware ADS-B
Fri 17:56:09 33.3230 -96.2320 359° North 475 547 41,000  Level FlightAware ADS-B
Fri 17:56:53 33.4170 -96.2330 359° North 473 544 41,000  Level FlightAware ADS-B
Fri 17:57:27 33.4920 -96.2330 360° North 470 541 41,000  Level FlightAware ADS-B
Fri 17:57:49 33.5410 -96.2290 North 475 547 41,000  Level FlightAware ADS-B
Fri 17:58:29 33.6250 -96.2040 14° North 483 556 41,000  Level FlightAware ADS-B
Fri 17:59:11 33.7160 -96.1730 16° North 482 555 41,000  Level FlightAware ADS-B
Fri 17:59:55 33.8110 -96.1410 16° North 481 554 41,000  Level FlightAware ADS-B
Fri 18:00:35 33.8960 -96.1120 16° North 480 552 41,000  Level FlightAware ADS-B
Fri 18:01:15 33.9810 -96.0830 16° North 479 551 41,000  Level FlightAware ADS-B
Fri 18:02:01 34.0820 -96.0480 16° North 480 552 41,000  Level FlightAware ADS-B
Fri 18:02:41 34.1670 -96.0190 16° North 480 552 41,000  Level FlightAware ADS-B
Fri 18:03:25 34.2580 -95.9880 16° North 477 549 41,000  Level FlightAware ADS-B
Fri 18:04:05 34.3450 -95.9580 16° North 475 547 41,000  Level FlightAware ADS-B
Fri 18:04:47 34.4330 -95.9270 16° North 474 545 41,000  Level FlightAware ADS-B
Fri 18:05:31 34.5250 -95.8950 16° North 477 549 41,000  Level FlightAware ADS-B
Fri 18:06:10 34.6090 -95.8660 16° North 479 551 41,000  Level FlightAware ADS-B
Fri 18:06:53 34.6910 -95.8380 16° North 482 555 41,000  Level FlightAware ADS-B
Fri 18:07:36 34.7900 -95.8030 16° North 483 556 41,000  Level FlightAware ADS-B
Fri 18:08:33 34.8990 -95.7420 25° Northeast 489 563 41,000  Level FlightAware ADS-B
Fri 18:09:11 34.9670 -95.6460 49° Northeast 502 578 41,000  Level FlightAware ADS-B
Fri 18:09:55 35.0330 -95.5710 43° Northeast 503 579 41,000  Level FlightAware ADS-B
Fri 18:10:31 35.0850 -95.5110 43° Northeast 503 579 41,000  Level FlightAware ADS-B
Fri 18:10:47 34.9180 -95.7020 223° Southwest 41,000  Level FlightAware ADS-B
Fri 18:11:26 35.1810 -95.3960 44° Northeast 506 582 41,000  Level FlightAware ADS-B
Fri 18:12:14 35.2750 -95.2850 44° Northeast 500 575 41,000  Level FlightAware ADS-B
Fri 18:12:59 35.3490 -95.1980 44° Northeast 497 572 41,000  Level FlightAware ADS-B
Fri 18:13:39 35.4150 -95.1200 44° Northeast 498 573 41,000  Level FlightAware ADS-B
Fri 18:14:17 35.4710 -95.0540 44° Northeast 497 572 41,000  Level FlightAware ADS-B
Fri 18:15:03 35.5540 -94.9550 44° Northeast 499 574 41,000  Level FlightAware ADS-B
Fri 18:15:52 35.6310 -94.8640 44° Northeast 502 578 41,000  Level FlightAware ADS-B
Fri 18:16:43 35.7220 -94.7550 44° Northeast 503 579 41,000  Level FlightAware ADS-B
Fri 18:17:25 35.7930 -94.6700 44° Northeast 504 580 41,000  Level FlightAware ADS-B
Fri 18:18:07 35.8630 -94.5860 44° Northeast 504 580 41,000  Level FlightAware ADS-B
Fri 18:18:49 35.9330 -94.5020 44° Northeast 504 580 41,000  Level FlightAware ADS-B
Fri 18:19:31 36.0010 -94.4190 45° Northeast 506 582 41,000  Level FlightAware ADS-B
Fri 18:20:11 36.0700 -94.3360 44° Northeast 508 585 41,000  Level FlightAware ADS-B
Fri 18:20:53 36.1390 -94.2530 44° Northeast 511 588 41,000  Level FlightAware ADS-B
Fri 18:21:35 36.2100 -94.1660 45° Northeast 512 589 41,000  Level FlightAware ADS-B
Fri 18:22:19 36.2950 -94.0880 36° Northeast 509 586 41,000  Level FlightAware ADS-B
Fri 18:22:59 36.3770 -94.0310 29° Northeast 509 586 41,000  Level FlightAware ADS-B
Fri 18:23:39 36.4590 -93.9730 30° Northeast 509 586 41,000  Level FlightAware ADS-B
Fri 18:24:23 36.5480 -93.9100 30° Northeast 509 586 41,000  Level FlightAware ADS-B
Fri 18:25:07 36.6390 -93.8460 29° Northeast 508 585 41,000  Level FlightAware ADS-B
Fri 18:26:03 36.7520 -93.7660 30° Northeast 508 585 41,000  Level FlightAware ADS-B
Fri 18:26:43 36.8350 -93.7070 30° Northeast 508 585 41,000  Level FlightAware ADS-B
Fri 18:27:25 36.9200 -93.6460 30° Northeast 507 583 41,000  Level FlightAware ADS-B
Fri 18:28:09 37.0090 -93.5830 29° Northeast 502 578 41,000  Level FlightAware ADS-B
Fri 18:28:51 37.0930 -93.5230 30° Northeast 502 578 41,000  Level FlightAware ADS-B
Fri 18:29:27 37.1670 -93.4700 30° Northeast 503 579 41,000  Level FlightAware ADS-B
Fri 18:30:09 37.2520 -93.4090 30° Northeast 504 580 41,000  Level FlightAware ADS-B
Fri 18:30:55 37.3440 -93.3410 30° Northeast 506 582 41,000  Level FlightAware ADS-B
Fri 18:31:39 37.4290 -93.2670 35° Northeast 507 583 41,000  Level FlightAware ADS-B
Fri 18:32:20 37.5060 -93.1960 36° Northeast 507 583 41,000  Level FlightAware ADS-B
Fri 18:33:01 37.5840 -93.1230 37° Northeast 507 583 41,000  Level FlightAware ADS-B
Fri 18:33:41 37.6600 -93.0530 36° Northeast 506 582 41,000  Level FlightAware ADS-B
Fri 18:34:25 37.7420 -92.9770 36° Northeast 504 580 41,000  Level FlightAware ADS-B
Fri 18:35:09 37.8250 -92.9000 36° Northeast 504 580 41,000  Level FlightAware ADS-B
Fri 18:35:51 37.9030 -92.8270 36° Northeast 505 581 41,000  Level FlightAware ADS-B
Fri 18:36:31 37.9780 -92.7560 37° Northeast 506 582 41,000  Level FlightAware ADS-B
Fri 18:37:13 38.0580 -92.6810 36° Northeast 507 583 41,000  Level FlightAware ADS-B
Fri 18:37:55 38.1360 -92.6070 37° Northeast 508 585 41,000  Level FlightAware ADS-B
Fri 18:38:39 38.2190 -92.5280 37° Northeast 507 583 41,000  Level FlightAware ADS-B
Fri 18:39:37 38.3210 -92.4330 36° Northeast 508 585 41,000  Level FlightAware ADS-B
Fri 18:40:29 38.4270 -92.3310 37° Northeast 510 587 41,000  Level FlightAware ADS-B
Fri 18:41:07 38.4910 -92.2710 36° Northeast 510 587 41,000  Level FlightAware ADS-B
Fri 18:41:48 38.5730 -92.1920 37° Northeast 509 586 41,000  Level FlightAware ADS-B
Fri 18:42:39 38.6550 -92.1130 37° Northeast 509 586 41,000  Level FlightAware ADS-B
Fri 18:43:20 38.7200 -92.0500 37° Northeast 509 586 41,000  Level FlightAware ADS-B
Fri 18:43:53 38.7730 -91.9990 37° Northeast 509 586 41,000  Level FlightAware ADS-B
Fri 18:44:44 38.9080 -91.8680 37° Northeast 512 589 41,000  Level FlightAware ADS-B
Fri 18:45:31 38.9860 -91.7920 37° Northeast 512 589 41,000  Level FlightAware ADS-B
Fri 18:46:18 39.0830 -91.6980 37° Northeast 514 592 41,000  Level FlightAware ADS-B
Fri 18:47:01 39.1670 -91.6160 37° Northeast 514 592 41,000  Level FlightAware ADS-B
Fri 18:47:41 39.2340 -91.5510 37° Northeast 514 592 41,000  Level FlightAware ADS-B
Fri 18:48:22 39.3140 -91.4720 37° Northeast 497 572 41,000  Level FlightAware ADS-B
Fri 18:49:11 39.3930 -91.3940 37° Northeast 487 560 41,000 -545 Level FlightAware ADS-B
Fri 18:49:50 39.4730 -91.3150 37° Northeast 472 543 40,200 -1,068 Descending FlightAware ADS-B
Fri 18:50:24 39.5320 -91.2560 38° Northeast 465 535 39,700 -439 Descending FlightAware ADS-B
Fri 18:51:12 39.6010 -91.1880 37° Northeast 465 535 39,600 -1,109 Descending FlightAware ADS-B
Fri 18:51:56 39.6870 -91.1020 38° Northeast 460 529 38,000 -1,185 Descending FlightAware ADS-B
Fri 18:52:33 39.7480 -91.0410 38° Northeast 461 531 38,000  Level FlightAware ADS-B
Fri 18:53:17 39.8220 -90.9660 38° Northeast 461 531 38,000 -400 Level FlightAware ADS-B
Fri 18:54:18 39.9270 -90.8610 37° Northeast 478 550 37,300 -928 Descending FlightAware ADS-B
Fri 18:54:54 39.9910 -90.7960 38° Northeast 483 556 36,500 -1,610 Descending FlightAware ADS-B
Fri 18:55:40 40.0710 -90.7150 38° Northeast 479 551 35,100 -1,953 Descending FlightAware ADS-B
Fri 18:56:20 40.1430 -90.6420 38° Northeast 474 545 33,700 -1,575 Descending FlightAware ADS-B
Fri 18:57:00 40.2080 -90.5760 38° Northeast 468 539 33,000 -500 Descending FlightAware ADS-B
Fri 18:57:44 40.2810 -90.4860 43° Northeast 473 544 33,000  Level FlightAware ADS-B
Fri 18:58:27 40.3450 -90.3970 47° Northeast 478 550 33,000  Level FlightAware ADS-B
Fri 18:59:08 40.4060 -90.3110 47° Northeast 472 543 33,000  Level FlightAware ADS-B
Fri 18:59:53 40.4730 -90.2160 47° Northeast 484 557 33,000  Level FlightAware ADS-B
Fri 19:00:34 40.5370 -90.1250 47° Northeast 493 567 33,000 -951 Level FlightAware ADS-B
Fri 19:01:15 40.5990 -90.0380 47° Northeast 493 567 31,700 -2,071 Descending FlightAware ADS-B
Fri 19:01:58 40.6660 -89.9420 47° Northeast 481 554 30,100 -2,138 Descending FlightAware ADS-B
Fri 19:02:42 40.7320 -89.8480 47° Northeast 474 545 28,600 -2,024 Descending FlightAware ADS-B
Fri 19:03:21 40.7890 -89.7660 47° Northeast 471 542 27,300 -1,902 Descending FlightAware ADS-B
Fri 19:04:04 40.8500 -89.6790 47° Northeast 469 540 26,000 -1,929 Descending FlightAware ADS-B
Fri 19:04:45 40.9110 -89.5910 47° Northeast 467 537 24,600 -1,429 Descending FlightAware ADS-B
Fri 19:05:28 40.9750 -89.4980 48° Northeast 468 539 24,000 -429 Descending FlightAware ADS-B
Fri 19:06:09 41.0300 -89.4170 48° Northeast 467 537 24,000 -75 Level FlightAware ADS-B
Fri 19:06:48 41.0860 -89.3310 49° Northeast 468 539 23,900 -706 Descending FlightAware ADS-B
Fri 19:07:34 41.1510 -89.2250 51° Northeast 462 532 23,000 -1,535 Descending FlightAware ADS-B
Fri 19:08:14 41.2040 -89.1380 51° Northeast 456 525 21,700 -1,807 Descending FlightAware ADS-B
Fri 19:08:57 41.2600 -89.0450 51° Northeast 450 518 20,500 -1,643 Descending FlightAware ADS-B
Fri 19:09:38 41.3110 -88.9610 51° Northeast 443 510 19,400 -2,471 Descending FlightAware ADS-B
Fri 19:10:22 41.3710 -88.8620 51° Northeast 450 518 17,000 -3,398 Descending FlightAware ADS-B
Fri 19:11:01 41.4210 -88.7790 51° Northeast 441 507 14,700 -3,253 Descending FlightAware ADS-B
Fri 19:11:45 41.4720 -88.6940 51° Northeast 403 464 12,500 -2,483 Descending FlightAware ADS-B
Fri 19:12:28 41.5190 -88.6150 52° Northeast 346 398 11,100 -1,034 Descending FlightAware ADS-B
Fri 19:13:12 41.5600 -88.5460 52° Northeast 306 352 11,000 -289 Descending FlightAware ADS-B
Fri 19:13:51 41.5940 -88.4890 51° Northeast 292 336 10,700 -786 Descending FlightAware ADS-B
Fri 19:14:36 41.6320 -88.4270 51° Northeast 291 335 9,900 -1,167 Descending FlightAware ADS-B
Fri 19:15:03 41.6620 -88.4010 33° Northeast 281 323 9,300 -1,418 Descending FlightAware ADS-B
Fri 19:15:31 41.6970 -88.3940 North 280 322 8,600 -1,286 Descending FlightAware ADS-B
Fri 19:15:59 41.7340 -88.3870 North 275 316 8,100 -632 Descending FlightAware ADS-B
Fri 19:16:28 41.7670 -88.3800 North 274 315 8,000 -107 Descending FlightAware ADS-B
Fri 19:16:55 41.8030 -88.3740 North 260 299 8,000  Level FlightAware ADS-B
Fri 19:17:21 41.8330 -88.3680 North 244 281 8,000  Level FlightAware ADS-B
Fri 19:17:36 41.8480 -88.3650 North 233 268 8,000  Level FlightAware ADS-B
Fri 19:18:02 41.8750 -88.3610 North 205 236 8,000  Level FlightAware ADS-B
Fri 19:18:32 41.8940 -88.3790 325° Northwest 185 213 8,000  Level FlightAware ADS-B
Fri 19:18:39 41.8950 -88.3890 278° West 189 217 8,000 -414 Level FlightAware ADS-B
Fri 19:19:01 41.8940 -88.4160 267° West 191 220 7,800 -840 Descending FlightAware ADS-B
Fri 19:19:29 41.8910 -88.4490 263° West 190 219 7,300 -923 Descending FlightAware ADS-B
Fri 19:19:40 41.8900 -88.4600 263° West 191 220 7,200 -450 Descending FlightAware ADS-B
Fri 19:20:09 41.9020 -88.4890 299° West 180 207 7,000 -267 Descending FlightAware ADS-B
Fri 19:20:25 41.9140 -88.4920 349° North 180 207 7,000  Level FlightAware ADS-B
Fri 19:20:53 41.9350 -88.4780 26° Northeast 183 211 7,000  Level FlightAware ADS-B
Fri 19:21:21 41.9440 -88.4470 69° East 185 213 7,000 -300 Level FlightAware ADS-B
Fri 19:21:33 41.9470 -88.4350 71° East 184 212 6,800 -878 Descending FlightAware ADS-B
Fri 19:22:02 41.9550 -88.4050 70° East 182 209 6,400 -873 Descending FlightAware ADS-B
Fri 19:22:28 41.9630 -88.3780 68° East 181 208 6,000 -977 Descending FlightAware ADS-B
Fri 19:22:45 41.9670 -88.3610 72° East 180 207 5,700 -900 Descending FlightAware ADS-B
Fri 19:23:08 41.9670 -88.3340 90° East 177 204 5,400 -778 Descending FlightAware ADS-B
Fri 19:23:39 41.9680 -88.2990 88° East 171 197 5,000 -400 Descending FlightAware ADS-B
Fri 19:24:08 41.9680 -88.2690 90° East 172 198 5,000  Level FlightAware ADS-B
Fri 19:24:37 41.9680 -88.2380 90° East 171 197 5,000 -211 Level FlightAware ADS-B
Fri 19:25:05 41.9680 -88.2090 90° East 175 201 4,800 -750 Descending FlightAware ADS-B
Fri 19:25:17 41.9680 -88.1940 90° East 177 204 4,500 -1,050 Descending FlightAware ADS-B
Fri 19:25:45 41.9680 -88.1640 90° East 177 204 4,100 -947 Descending FlightAware ADS-B
Fri 19:26:14 41.9680 -88.1330 90° East 175 201 3,600 -1,000 Descending FlightAware ADS-B
Fri 19:26:51 41.9690 -88.0940 88° East 164 189 3,000 -896 Descending FlightAware ADS-B
Fri 19:27:21 41.9690 -88.0640 90° East 161 185 2,600 -828 Descending FlightAware ADS-B
Fri 19:27:49 41.9690 -88.0360 90° East 160 184 2,200 -811 Descending FlightAware ADS-B
Fri 19:28:35 41.9690 -87.9930 90° East 146 168 1,600 -776 Descending FlightAware ADS-B
Fri 19:29:14 41.9690 -87.9580 90° East 143 165 1,100 -764 Descending FlightAware ADS-B
Fri 19:29:30 41.9690 -87.9440 90° East 143 165 900 -750 Descending FlightAware ADS-B
Fri 19:31:38 41.9700 -87.8980 88° East 15 17 -422 Descending FlightAware ADS-B

Login

Don't have an account? Register now (free) for customized features, flight alerts, and more!